createdAt,value
2018-06-14T00:00:04.057Z,11.90
2018-06-14T00:02:32.867Z,11.70
2018-06-14T00:05:01.375Z,11.60
2018-06-14T00:07:29.779Z,11.80
2018-06-14T00:09:58.726Z,11.90
2018-06-14T00:12:27.462Z,11.90
2018-06-14T00:14:56.102Z,12.00
2018-06-14T00:17:24.467Z,12.00
2018-06-14T00:19:53.358Z,11.80
2018-06-14T00:22:21.794Z,11.90
2018-06-14T00:24:50.487Z,12.00
2018-06-14T00:27:18.954Z,12.30
2018-06-14T00:29:47.830Z,12.20
2018-06-14T00:32:16.237Z,12.10
2018-06-14T00:34:44.583Z,11.90
2018-06-14T00:37:13.276Z,11.80
2018-06-14T00:39:42.586Z,12.00
2018-06-14T00:42:11.034Z,12.00
2018-06-14T00:44:39.717Z,12.10
2018-06-14T00:47:08.069Z,12.20
2018-06-14T00:49:36.678Z,12.30
2018-06-14T00:52:05.370Z,12.10
2018-06-14T00:54:34.083Z,12.00
2018-06-14T00:57:08.093Z,12.00
2018-06-14T00:59:36.428Z,11.90
2018-06-14T01:02:04.771Z,11.70
2018-06-14T01:04:33.494Z,11.60
2018-06-14T01:07:01.942Z,11.60
2018-06-14T01:09:30.376Z,11.50
2018-06-14T01:11:58.754Z,11.70
2018-06-14T01:14:27.624Z,11.80
2018-06-14T01:16:55.999Z,11.90
2018-06-14T01:19:24.418Z,11.90
2018-06-14T01:21:53.074Z,11.90
2018-06-14T01:24:21.491Z,11.80
2018-06-14T01:26:51.332Z,11.60
2018-06-14T01:29:20.149Z,11.60
2018-06-14T01:31:48.516Z,11.60
2018-06-14T01:34:16.909Z,11.50
2018-06-14T01:36:45.310Z,11.60
2018-06-14T01:39:13.698Z,11.80
2018-06-14T01:41:42.072Z,11.90
2018-06-14T01:44:10.455Z,12.00
2018-06-14T01:46:39.381Z,11.80
2018-06-14T01:49:07.765Z,11.90
2018-06-14T01:51:36.276Z,12.20
2018-06-14T01:54:05.414Z,12.20
2018-06-14T01:56:33.768Z,12.20
2018-06-14T01:59:02.141Z,12.10
2018-06-14T02:01:31.032Z,12.10
2018-06-14T02:03:59.419Z,12.20
2018-06-14T02:06:27.801Z,12.10
2018-06-14T02:08:56.386Z,12.10
2018-06-14T02:11:25.155Z,12.10
2018-06-14T02:13:53.538Z,12.00
2018-06-14T02:16:21.965Z,11.90
2018-06-14T02:18:50.317Z,12.10
2018-06-14T02:21:19.072Z,12.10
2018-06-14T02:23:47.422Z,12.00
2018-06-14T02:26:15.826Z,12.10
2018-06-14T02:28:44.194Z,12.10
2018-06-14T02:31:12.974Z,12.00
2018-06-14T02:33:41.326Z,12.00
2018-06-14T02:36:09.978Z,12.00
2018-06-14T02:38:38.675Z,12.10
2018-06-14T02:41:07.090Z,12.20
2018-06-14T02:43:35.677Z,12.30
2018-06-14T02:46:04.067Z,12.10
2018-06-14T02:48:32.770Z,12.00
2018-06-14T02:51:01.134Z,12.10
2018-06-14T02:53:29.480Z,12.10
2018-06-14T02:55:57.834Z,12.10
2018-06-14T02:58:26.505Z,12.00
2018-06-14T03:00:55.191Z,11.90
2018-06-14T03:03:23.568Z,11.80
2018-06-14T03:05:52.338Z,11.90
2018-06-14T03:08:20.691Z,11.90
2018-06-14T03:10:49.502Z,12.10
2018-06-14T03:13:18.190Z,11.90
2018-06-14T03:15:46.751Z,11.80
2018-06-14T03:18:15.399Z,11.80
2018-06-14T03:20:43.796Z,11.80
2018-06-14T03:23:12.848Z,11.70
2018-06-14T03:25:41.339Z,11.60
2018-06-14T03:28:09.735Z,11.70
2018-06-14T03:33:06.648Z,11.70
2018-06-14T03:35:35.052Z,11.60
2018-06-14T03:38:03.442Z,11.80
2018-06-14T03:43:00.224Z,11.90
2018-06-14T03:45:28.621Z,11.70
2018-06-14T03:47:56.985Z,11.70
2018-06-14T03:50:25.846Z,11.70
2018-06-14T03:52:54.653Z,11.70
2018-06-14T03:55:23.051Z,11.80
2018-06-14T03:57:51.911Z,11.80
2018-06-14T04:00:20.274Z,11.70
2018-06-14T04:02:48.704Z,11.60
2018-06-14T04:05:17.596Z,11.60
2018-06-14T04:07:45.974Z,11.70
2018-06-14T04:10:14.343Z,11.70
2018-06-14T04:12:43.173Z,11.70
2018-06-14T04:15:11.608Z,11.60
2018-06-14T04:17:39.988Z,11.60
2018-06-14T04:20:08.827Z,11.60
2018-06-14T04:22:37.394Z,11.60
2018-06-14T04:25:05.809Z,11.40
2018-06-14T04:27:34.881Z,11.50
2018-06-14T04:32:31.290Z,11.70
2018-06-14T04:35:00.111Z,11.80
2018-06-14T04:37:28.578Z,11.80
2018-06-14T04:39:56.940Z,12.00
2018-06-14T04:42:25.759Z,11.90
2018-06-14T04:44:54.121Z,12.00
2018-06-14T04:47:22.529Z,12.00
2018-06-14T04:49:51.183Z,12.00
2018-06-14T04:52:19.534Z,12.00
2018-06-14T04:54:48.603Z,12.30
2018-06-14T04:59:55.848Z,12.40
2018-06-14T05:02:24.320Z,12.40
2018-06-14T05:07:21.121Z,12.40
2018-06-14T05:09:49.528Z,12.40
2018-06-14T05:14:46.285Z,12.50
2018-06-14T05:20:20.068Z,12.90
2018-06-14T05:23:13.475Z,12.90
2018-06-14T05:28:15.559Z,13.00
2018-06-14T05:30:54.270Z,13.00
2018-06-14T05:33:42.187Z,12.80
2018-06-14T05:36:18.082Z,12.70
2018-06-14T05:38:55.017Z,12.90
2018-06-14T05:41:42.257Z,13.00
2018-06-14T05:44:18.532Z,13.00
2018-06-14T05:46:51.871Z,13.10
2018-06-14T05:49:25.351Z,13.20
2018-06-14T05:52:00.716Z,13.20
2018-06-14T05:54:31.605Z,12.90
2018-06-14T05:57:10.109Z,12.90
2018-06-14T05:59:39.202Z,13.40
2018-06-14T06:02:26.669Z,13.60
2018-06-14T06:05:17.749Z,13.80
2018-06-14T06:07:53.535Z,14.00
2018-06-14T06:10:50.433Z,14.00
2018-06-14T06:16:18.641Z,14.20
2018-06-14T06:24:11.162Z,15.00
2018-06-14T06:26:39.614Z,14.90
2018-06-14T06:31:37.396Z,14.90
2018-06-14T06:34:05.858Z,15.10
2018-06-14T06:36:39.204Z,15.30
2018-06-14T06:39:08.570Z,15.40
2018-06-14T06:41:37.026Z,15.40
2018-06-14T06:44:05.694Z,15.40
2018-06-14T06:46:34.078Z,15.50
2018-06-14T06:49:02.538Z,15.80
2018-06-14T06:51:31.368Z,15.80
2018-06-14T06:54:03.208Z,16.20
2018-06-14T07:01:22.382Z,17.20
2018-06-14T07:03:51.430Z,18.50
2018-06-14T07:06:20.474Z,18.20
2018-06-14T07:08:59.247Z,18.40
2018-06-14T07:11:29.076Z,17.60
2018-06-14T07:13:57.553Z,18.00
2018-06-14T07:16:25.969Z,18.40
2018-06-14T07:18:56.514Z,17.70
2018-06-14T07:21:26.708Z,17.70
2018-06-14T07:26:23.580Z,18.90
2018-06-14T07:28:52.030Z,18.60
2018-06-14T07:31:20.439Z,18.70
2018-06-14T07:33:51.468Z,17.90
2018-06-14T07:38:53.704Z,18.60
2018-06-14T07:41:24.719Z,18.80
2018-06-14T07:43:53.150Z,17.80
2018-06-14T07:46:22.474Z,17.00
2018-06-14T07:49:05.952Z,16.10
2018-06-14T07:54:02.937Z,16.50
2018-06-14T07:58:59.638Z,17.10
2018-06-14T08:01:28.153Z,16.40
2018-06-14T08:03:59.892Z,16.80
2018-06-14T08:06:29.649Z,16.80
2018-06-14T08:08:58.703Z,16.60
2018-06-14T08:11:27.523Z,16.40
2018-06-14T08:13:56.017Z,16.50
2018-06-14T08:16:24.408Z,16.70
2018-06-14T08:19:03.906Z,15.80
2018-06-14T08:21:32.336Z,16.20
2018-06-14T08:24:00.743Z,16.60
2018-06-14T08:26:33.039Z,16.70
2018-06-14T08:29:02.419Z,16.80
2018-06-14T08:31:32.989Z,16.30
2018-06-14T08:34:01.828Z,16.70
2018-06-14T08:36:31.611Z,16.60
2018-06-14T08:39:00.033Z,15.90
2018-06-14T08:41:28.585Z,15.40
2018-06-14T08:43:57.378Z,15.50
2018-06-14T08:46:25.812Z,15.50
2018-06-14T08:51:29.350Z,15.10
2018-06-14T08:54:10.507Z,14.70
2018-06-14T08:59:06.867Z,15.50
2018-06-14T09:01:35.314Z,15.90
2018-06-14T09:06:31.755Z,15.60
2018-06-14T09:09:00.571Z,15.60
2018-06-14T09:11:28.985Z,15.60
2018-06-14T09:13:57.355Z,15.50
2018-06-14T09:16:34.668Z,16.20
2018-06-14T09:19:03.304Z,16.60
2018-06-14T09:23:59.758Z,17.30
2018-06-14T09:26:28.407Z,16.00
2018-06-14T09:28:59.019Z,15.60
2018-06-14T09:33:56.998Z,16.40
2018-06-14T09:36:45.679Z,17.20
2018-06-14T09:39:15.569Z,17.70
2018-06-14T09:48:25.201Z,17.90
2018-06-14T09:51:03.186Z,18.20
2018-06-14T09:53:34.758Z,18.90
2018-06-14T09:56:03.451Z,19.30
2018-06-14T09:58:33.978Z,17.80
2018-06-14T10:01:05.949Z,18.40
2018-06-14T10:03:35.760Z,18.40
2018-06-14T10:06:04.518Z,19.00
2018-06-14T10:08:41.137Z,19.30
2018-06-14T10:11:09.545Z,18.90
2018-06-14T10:13:37.981Z,19.10
2018-06-14T10:16:07.019Z,19.80
2018-06-14T10:18:54.924Z,19.70
2018-06-14T10:21:29.858Z,18.80
2018-06-14T10:23:59.907Z,19.60
2018-06-14T10:26:29.623Z,20.10
2018-06-14T10:28:58.658Z,19.20
2018-06-14T10:31:27.449Z,19.20
2018-06-14T10:33:56.210Z,19.30
2018-06-14T10:36:24.940Z,18.90
2018-06-14T10:38:56.106Z,18.50
2018-06-14T10:41:24.923Z,18.70
2018-06-14T10:43:53.366Z,19.30
2018-06-14T10:46:21.841Z,20.10
2018-06-14T10:48:55.033Z,19.60
2018-06-14T10:51:27.131Z,18.10
2018-06-14T10:53:56.563Z,17.10
2018-06-14T10:56:29.551Z,17.00
2018-06-14T10:59:04.008Z,17.20
2018-06-14T11:01:32.426Z,17.00
2018-06-14T11:04:00.832Z,16.70
2018-06-14T11:06:41.502Z,16.60
2018-06-14T11:12:01.304Z,18.30
2018-06-14T11:14:49.227Z,17.00
2018-06-14T11:17:24.804Z,17.20
2018-06-14T11:22:29.966Z,17.10
2018-06-14T11:25:02.771Z,17.30
2018-06-14T11:27:33.652Z,17.20
2018-06-14T11:30:02.038Z,18.10
2018-06-14T11:32:31.039Z,19.40
2018-06-14T11:35:00.954Z,19.10
2018-06-14T11:37:30.655Z,19.50
2018-06-14T11:42:27.599Z,20.40
2018-06-14T11:47:40.736Z,19.50
2018-06-14T11:50:12.125Z,18.30
2018-06-14T11:55:13.956Z,17.70
2018-06-14T11:57:43.708Z,18.00
2018-06-14T12:00:14.432Z,19.50
2018-06-14T12:02:47.047Z,20.10
2018-06-14T12:05:17.567Z,19.10
2018-06-14T12:10:53.140Z,20.70
2018-06-14T12:13:24.572Z,20.50
2018-06-14T12:15:53.579Z,20.20
2018-06-14T12:18:22.066Z,20.50
2018-06-14T12:20:50.519Z,20.50
2018-06-14T12:23:19.290Z,19.60
2018-06-14T12:25:48.375Z,18.80
2018-06-14T12:30:49.830Z,18.30
2018-06-14T12:33:36.301Z,19.00
2018-06-14T12:36:05.840Z,18.90
2018-06-14T12:38:35.034Z,18.10
2018-06-14T12:41:04.421Z,17.80
2018-06-14T12:43:33.169Z,18.70
2018-06-14T12:48:29.802Z,18.30
2018-06-14T12:50:58.575Z,18.40
2018-06-14T12:53:27.801Z,17.70
2018-06-14T12:55:56.706Z,17.70
2018-06-14T12:58:25.446Z,18.10
2018-06-14T13:00:54.237Z,18.20
2018-06-14T13:03:26.645Z,18.50
2018-06-14T13:05:55.860Z,18.20
2018-06-14T13:08:25.000Z,18.20
2018-06-14T13:13:23.201Z,17.90
2018-06-14T13:15:54.178Z,18.50
2018-06-14T13:18:22.587Z,18.40
2018-06-14T13:20:51.668Z,18.30
2018-06-14T13:23:20.833Z,18.40
2018-06-14T13:25:50.258Z,18.60
2018-06-14T13:31:40.260Z,18.40
2018-06-14T13:34:09.341Z,18.40
2018-06-14T13:36:37.785Z,18.70
2018-06-14T13:39:11.543Z,18.20
2018-06-14T13:42:07.458Z,18.70
2018-06-14T13:44:40.818Z,19.20
2018-06-14T13:47:22.750Z,18.80
2018-06-14T13:49:52.362Z,18.80
2018-06-14T13:52:23.473Z,18.90
2018-06-14T13:54:52.295Z,18.40
2018-06-14T13:57:40.863Z,18.80
2018-06-14T14:00:21.426Z,18.60
2018-06-14T14:02:54.808Z,19.00
2018-06-14T14:05:27.390Z,18.90
2018-06-14T14:07:56.243Z,18.80
2018-06-14T14:10:32.997Z,18.70
2018-06-14T14:13:10.744Z,19.10
2018-06-14T14:15:46.071Z,18.50
2018-06-14T14:18:16.655Z,18.50
2018-06-14T14:20:47.509Z,18.50
2018-06-14T14:23:16.060Z,18.70
2018-06-14T14:25:45.133Z,18.30
2018-06-14T14:28:34.240Z,18.10
2018-06-14T14:31:03.660Z,18.40
2018-06-14T14:33:32.137Z,18.40
2018-06-14T14:36:00.705Z,18.20
2018-06-14T14:38:32.206Z,18.00
2018-06-14T14:44:16.324Z,18.30
2018-06-14T14:46:51.694Z,18.30
2018-06-14T14:49:21.494Z,18.30
2018-06-14T14:51:58.718Z,18.20
2018-06-14T14:54:31.837Z,18.30
2018-06-14T14:59:59.919Z,18.60
2018-06-14T15:02:30.395Z,18.70
2018-06-14T15:05:05.170Z,18.40
2018-06-14T15:07:34.368Z,18.70
2018-06-14T15:10:02.917Z,18.60
2018-06-14T15:12:31.696Z,18.80
2018-06-14T15:15:00.846Z,18.50
2018-06-14T15:17:46.736Z,18.50
2018-06-14T15:20:46.345Z,18.50
2018-06-14T15:23:26.695Z,18.50
2018-06-14T15:26:01.944Z,18.30
2018-06-14T15:28:30.704Z,18.30
2018-06-14T15:33:28.583Z,18.10
2018-06-14T15:35:58.220Z,18.10
2018-06-14T15:38:26.600Z,18.10
2018-06-14T15:40:55.050Z,18.30
2018-06-14T15:43:24.311Z,18.20
2018-06-14T15:45:52.790Z,18.40
2018-06-14T15:48:21.695Z,18.50
2018-06-14T15:50:52.847Z,18.70
2018-06-14T15:53:21.446Z,18.50
2018-06-14T15:56:54.347Z,18.50
2018-06-14T15:59:23.803Z,18.00
2018-06-14T16:01:52.682Z,18.20
2018-06-14T16:04:21.207Z,18.50
2018-06-14T16:06:49.668Z,18.60
2018-06-14T16:09:18.552Z,18.70
2018-06-14T16:11:47.101Z,18.80
2018-06-14T16:14:40.647Z,18.80
2018-06-14T16:17:16.992Z,18.30
2018-06-14T16:22:31.081Z,18.40
2018-06-14T16:24:59.955Z,18.20
2018-06-14T16:27:32.186Z,18.20
2018-06-14T16:30:03.284Z,18.30
2018-06-14T16:32:32.022Z,18.10
2018-06-14T16:35:00.857Z,18.10
2018-06-14T16:37:29.558Z,18.10
2018-06-14T16:39:57.946Z,17.90
2018-06-14T16:42:39.173Z,17.80
2018-06-14T16:45:09.280Z,17.70
2018-06-14T16:47:37.990Z,17.60
2018-06-14T16:50:06.412Z,17.60
2018-06-14T16:52:36.029Z,17.50
2018-06-14T16:55:05.669Z,17.70
2018-06-14T16:57:34.150Z,17.60
2018-06-14T17:00:03.346Z,17.20
2018-06-14T17:02:31.775Z,17.30
2018-06-14T17:05:00.206Z,17.50
2018-06-14T17:07:29.312Z,17.40
2018-06-14T17:12:25.868Z,17.60
2018-06-14T17:17:22.646Z,17.60
2018-06-14T17:19:51.458Z,17.60
2018-06-14T17:22:20.239Z,17.70
2018-06-14T17:24:48.682Z,17.70
2018-06-14T17:27:17.102Z,17.40
2018-06-14T17:29:46.273Z,17.50
2018-06-14T17:32:15.458Z,17.70
2018-06-14T17:34:43.892Z,17.90
2018-06-14T17:37:12.757Z,17.90
2018-06-14T17:39:41.134Z,17.60
2018-06-14T17:42:09.558Z,17.50
2018-06-14T17:44:39.008Z,17.40
2018-06-14T17:47:07.779Z,17.40
2018-06-14T17:52:05.674Z,17.70
2018-06-14T17:54:34.062Z,17.90
2018-06-14T17:57:02.565Z,17.90
2018-06-14T18:01:59.315Z,17.90
2018-06-14T18:04:29.499Z,17.60
2018-06-14T18:06:58.270Z,17.40
2018-06-14T18:09:26.759Z,17.30
2018-06-14T18:11:55.145Z,17.10
2018-06-14T18:14:23.962Z,16.70
2018-06-14T18:16:52.619Z,16.80
2018-06-14T18:19:22.089Z,16.60
2018-06-14T18:21:52.159Z,16.40
2018-06-14T18:24:20.527Z,16.50
2018-06-14T18:26:49.146Z,16.40
2018-06-14T18:29:18.007Z,16.40
2018-06-14T18:31:46.371Z,16.70
2018-06-14T18:34:14.746Z,16.70
2018-06-14T18:39:12.354Z,16.30
2018-06-14T18:41:41.278Z,16.20
2018-06-14T18:44:10.154Z,15.80
2018-06-14T18:46:39.465Z,16.00
2018-06-14T18:49:07.910Z,16.00
2018-06-14T18:51:36.784Z,16.00
2018-06-14T18:54:05.473Z,16.10
2018-06-14T18:56:34.424Z,16.20
2018-06-14T18:59:03.120Z,16.20
2018-06-14T19:01:32.496Z,16.20
2018-06-14T19:04:02.957Z,16.10
2018-06-14T19:06:31.934Z,16.10
2018-06-14T19:11:29.335Z,16.00
2018-06-14T19:13:58.397Z,15.70
2018-06-14T19:16:26.755Z,15.30
2018-06-14T19:18:55.866Z,15.10
2018-06-14T19:21:25.475Z,15.20
2018-06-14T19:23:54.766Z,15.30
2018-06-14T19:26:24.985Z,15.40
2018-06-14T19:28:55.262Z,15.20
2018-06-14T19:31:24.751Z,15.30
2018-06-14T19:33:54.350Z,15.30
2018-06-14T19:36:24.156Z,15.30
2018-06-14T19:38:53.850Z,15.30
2018-06-14T19:41:22.317Z,15.30
2018-06-14T19:43:51.113Z,15.30
2018-06-14T19:46:20.800Z,15.20
2018-06-14T19:48:49.398Z,15.10
2018-06-14T19:51:19.306Z,15.30
2018-06-14T19:53:48.644Z,15.30
2018-06-14T19:56:17.333Z,15.20
2018-06-14T19:58:47.225Z,15.10
2018-06-14T20:01:17.061Z,14.90
2018-06-14T20:03:46.439Z,14.70
2018-06-14T20:06:20.117Z,14.50
2018-06-14T20:08:49.377Z,14.40
2018-06-14T20:11:18.460Z,14.30
2018-06-14T20:13:47.565Z,14.40
2018-06-14T20:18:44.114Z,14.50
2018-06-14T20:23:40.911Z,14.50
2018-06-14T20:26:09.429Z,14.40
2018-06-14T20:28:38.256Z,14.50
2018-06-14T20:31:06.801Z,14.20
2018-06-14T20:33:36.336Z,14.10
2018-06-14T20:36:05.210Z,14.00
2018-06-14T20:38:34.857Z,14.10
2018-06-14T20:41:03.264Z,14.30
2018-06-14T20:43:32.038Z,14.40
2018-06-14T20:46:00.679Z,14.30
2018-06-14T20:48:29.130Z,14.00
2018-06-14T20:50:59.096Z,14.10
2018-06-14T20:53:27.649Z,14.20
2018-06-14T20:55:56.077Z,14.30
2018-06-14T20:58:25.982Z,14.50
2018-06-14T21:00:56.033Z,14.50
2018-06-14T21:03:24.892Z,14.40
2018-06-14T21:05:53.748Z,14.70
2018-06-14T21:08:22.391Z,14.80
2018-06-14T21:10:50.817Z,14.80
2018-06-14T21:13:19.698Z,14.80
2018-06-14T21:15:48.599Z,14.70
2018-06-14T21:18:18.483Z,14.80
2018-06-14T21:20:47.250Z,14.80
2018-06-14T21:23:15.617Z,14.70
2018-06-14T21:25:44.043Z,14.60
2018-06-14T21:28:12.831Z,14.40
2018-06-14T21:30:41.288Z,14.40
2018-06-14T21:33:09.769Z,14.50
2018-06-14T21:35:38.520Z,14.50
2018-06-14T21:38:06.911Z,14.70
2018-06-14T21:40:35.305Z,14.70
2018-06-14T21:43:04.122Z,14.70
2018-06-14T21:45:32.818Z,14.60
2018-06-14T21:48:01.599Z,14.20
2018-06-14T21:50:30.379Z,14.00
2018-06-14T21:52:58.863Z,14.30
2018-06-14T21:55:27.240Z,14.50
2018-06-14T21:57:56.032Z,14.60
2018-06-14T22:00:24.950Z,14.50
2018-06-14T22:05:26.895Z,14.50
2018-06-14T22:07:55.278Z,14.50
2018-06-14T22:10:23.707Z,14.40
2018-06-14T22:12:52.440Z,14.20
2018-06-14T22:15:20.955Z,14.10
2018-06-14T22:20:18.093Z,14.20
2018-06-14T22:22:46.520Z,14.50
2018-06-14T22:25:14.978Z,14.50
2018-06-14T22:27:43.778Z,14.40
2018-06-14T22:30:12.317Z,14.40
2018-06-14T22:32:40.755Z,14.50
2018-06-14T22:35:26.057Z,14.50
2018-06-14T22:37:54.951Z,14.60
2018-06-14T22:40:23.811Z,14.50
2018-06-14T22:42:52.242Z,14.40
2018-06-14T22:45:20.653Z,14.20
2018-06-14T22:47:49.384Z,14.00
2018-06-14T22:50:23.455Z,14.10
2018-06-14T22:52:54.744Z,14.20
2018-06-14T22:55:24.479Z,14.20
2018-06-14T23:00:27.806Z,14.30
2018-06-14T23:05:24.285Z,14.20
2018-06-14T23:07:52.797Z,14.20
2018-06-14T23:10:28.443Z,14.20
2018-06-14T23:12:56.831Z,14.20
2018-06-14T23:15:25.272Z,14.20
2018-06-14T23:17:54.192Z,14.00
2018-06-14T23:20:23.507Z,13.80
2018-06-14T23:22:52.982Z,13.80
2018-06-14T23:25:22.810Z,13.80
2018-06-14T23:30:19.496Z,14.00
2018-06-14T23:32:48.549Z,14.10
2018-06-14T23:35:17.405Z,14.10
2018-06-14T23:37:45.864Z,14.00
2018-06-14T23:40:14.744Z,14.00
2018-06-14T23:42:43.156Z,13.70
2018-06-14T23:45:11.582Z,13.50
2018-06-14T23:47:40.361Z,13.40
2018-06-14T23:50:08.757Z,13.40
2018-06-14T23:52:37.155Z,13.60
2018-06-14T23:55:06.055Z,13.90
2018-06-14T23:57:34.516Z,14.00
